createdAt,value
2022-10-23T00:01:26.460Z,16.00
2022-10-23T00:03:58.526Z,16.00
2022-10-23T00:06:27.742Z,15.90
2022-10-23T00:08:56.455Z,15.90
2022-10-23T00:11:26.744Z,15.90
2022-10-23T00:13:57.211Z,15.90
2022-10-23T00:16:25.436Z,15.90
2022-10-23T00:18:55.177Z,15.90
2022-10-23T00:21:23.567Z,15.80
2022-10-23T00:23:51.889Z,15.80
2022-10-23T00:26:20.475Z,15.80
2022-10-23T00:28:51.158Z,15.80
2022-10-23T00:31:20.066Z,15.80
2022-10-23T00:33:48.977Z,15.70
2022-10-23T00:36:20.985Z,15.70
2022-10-23T00:38:49.526Z,15.70
2022-10-23T00:41:21.041Z,15.70
2022-10-23T00:44:06.573Z,15.60
2022-10-23T00:46:35.562Z,15.70
2022-10-23T00:49:04.432Z,15.60
2022-10-23T00:51:38.165Z,15.70
2022-10-23T00:56:59.571Z,15.80
2022-10-23T00:59:28.402Z,15.80
2022-10-23T01:01:57.314Z,15.90
2022-10-23T01:04:26.812Z,15.90
2022-10-23T01:07:04.910Z,16.00
2022-10-23T01:09:38.957Z,16.00
2022-10-23T01:12:16.602Z,16.00
2022-10-23T01:14:58.518Z,16.10
2022-10-23T01:17:34.788Z,16.10
2022-10-23T01:20:15.315Z,16.10
2022-10-23T01:23:06.325Z,16.10
2022-10-23T01:25:58.067Z,16.10
2022-10-23T01:28:31.470Z,16.10
2022-10-23T01:31:03.143Z,16.10
2022-10-23T01:33:35.198Z,16.10
2022-10-23T01:36:06.054Z,16.10
2022-10-23T01:38:42.463Z,16.10
2022-10-23T01:41:17.454Z,16.10
2022-10-23T01:43:54.056Z,16.00
2022-10-23T01:46:25.001Z,16.00
2022-10-23T01:48:56.273Z,16.00
2022-10-23T01:51:28.528Z,16.00
2022-10-23T01:53:59.578Z,15.90
2022-10-23T01:56:36.685Z,15.90
2022-10-23T01:59:10.911Z,15.90
2022-10-23T02:01:43.298Z,15.90
2022-10-23T02:04:15.459Z,15.90
2022-10-23T02:06:43.859Z,15.90
2022-10-23T02:09:12.326Z,15.90
2022-10-23T02:11:48.091Z,15.90
2022-10-23T02:14:23.814Z,15.90
2022-10-23T02:16:54.198Z,15.90
2022-10-23T02:19:30.614Z,15.90
2022-10-23T02:22:07.779Z,15.90
2022-10-23T02:24:40.584Z,15.90
2022-10-23T02:27:13.986Z,15.90
2022-10-23T02:29:48.396Z,15.90
2022-10-23T02:32:19.079Z,16.00
2022-10-23T02:34:47.365Z,16.00
2022-10-23T02:37:16.224Z,16.00
2022-10-23T02:39:44.808Z,16.00
2022-10-23T02:42:22.161Z,16.10
2022-10-23T02:45:02.482Z,16.10
2022-10-23T02:47:46.165Z,16.10
2022-10-23T02:50:25.812Z,16.10
2022-10-23T02:53:00.939Z,16.10
2022-10-23T02:55:40.285Z,16.10
2022-10-23T02:58:15.487Z,16.10
2022-10-23T03:00:50.450Z,16.10
2022-10-23T03:03:22.801Z,16.10
2022-10-23T03:05:51.293Z,16.10
2022-10-23T03:08:19.546Z,16.10
2022-10-23T03:13:16.919Z,16.00
2022-10-23T03:15:46.622Z,15.90
2022-10-23T03:18:14.892Z,16.00
2022-10-23T03:20:43.113Z,15.90
2022-10-23T03:23:14.579Z,15.90
2022-10-23T03:25:42.790Z,15.90
2022-10-23T03:28:11.092Z,15.80
2022-10-23T03:30:39.341Z,15.80
2022-10-23T03:33:09.026Z,15.70
2022-10-23T03:35:37.497Z,15.70
2022-10-23T03:38:05.734Z,15.60
2022-10-23T03:40:34.043Z,15.60
2022-10-23T03:43:02.390Z,15.60
2022-10-23T03:45:31.034Z,15.60
2022-10-23T03:47:59.450Z,15.60
2022-10-23T03:50:29.342Z,15.60
2022-10-23T03:52:57.666Z,15.60
2022-10-23T03:55:27.273Z,15.50
2022-10-23T03:57:55.570Z,15.50
2022-10-23T04:00:23.861Z,15.40
2022-10-23T04:02:52.093Z,15.40
2022-10-23T04:05:20.456Z,15.30
2022-10-23T04:07:50.143Z,15.30
2022-10-23T04:10:18.613Z,15.20
2022-10-23T04:12:46.827Z,15.20
2022-10-23T04:15:15.057Z,15.20
2022-10-23T04:17:43.333Z,15.10
2022-10-23T04:20:11.774Z,15.10
2022-10-23T04:22:40.321Z,15.00
2022-10-23T04:25:10.905Z,15.00
2022-10-23T04:27:39.112Z,15.00
2022-10-23T04:30:08.658Z,14.90
2022-10-23T04:32:37.135Z,14.90
2022-10-23T04:35:06.159Z,14.90
2022-10-23T04:37:34.350Z,14.80
2022-10-23T04:40:02.616Z,14.80
2022-10-23T04:42:32.274Z,14.80
2022-10-23T04:45:00.525Z,14.70
2022-10-23T04:47:28.842Z,14.70
2022-10-23T04:49:57.100Z,14.70
2022-10-23T04:52:25.330Z,14.60
2022-10-23T04:54:53.791Z,14.60
2022-10-23T04:57:22.063Z,14.50
2022-10-23T04:59:51.759Z,14.50
2022-10-23T05:02:19.966Z,14.50
2022-10-23T05:04:48.182Z,14.50
2022-10-23T05:07:16.481Z,14.50
2022-10-23T05:09:44.923Z,14.40
2022-10-23T05:12:13.206Z,14.40
2022-10-23T05:14:41.411Z,14.40
2022-10-23T05:17:16.421Z,14.30
2022-10-23T05:19:50.117Z,14.30
2022-10-23T05:22:19.635Z,14.30
2022-10-23T05:24:50.473Z,14.30
2022-10-23T05:27:19.165Z,14.20
2022-10-23T05:29:47.405Z,14.20
2022-10-23T05:32:18.377Z,14.20
2022-10-23T05:34:46.934Z,14.20
2022-10-23T05:37:17.469Z,14.20
2022-10-23T05:39:45.698Z,14.20
2022-10-23T05:42:14.063Z,14.20
2022-10-23T05:44:42.604Z,14.10
2022-10-23T05:47:10.819Z,14.20
2022-10-23T05:49:40.521Z,14.10
2022-10-23T05:52:11.536Z,14.20
2022-10-23T05:54:39.871Z,14.10
2022-10-23T05:57:08.277Z,14.10
2022-10-23T05:59:36.561Z,14.10
2022-10-23T06:02:04.931Z,14.00
2022-10-23T06:04:34.954Z,14.00
2022-10-23T06:07:05.031Z,14.10
2022-10-23T06:09:33.631Z,14.00
2022-10-23T06:12:03.075Z,14.00
2022-10-23T06:14:31.229Z,14.00
2022-10-23T06:16:59.483Z,14.00
2022-10-23T06:19:27.690Z,14.10
2022-10-23T06:21:56.047Z,14.10
2022-10-23T06:24:25.825Z,14.10
2022-10-23T06:26:54.024Z,14.10
2022-10-23T06:29:22.398Z,14.10
2022-10-23T06:31:50.609Z,14.10
2022-10-23T06:34:19.037Z,14.10
2022-10-23T06:36:47.277Z,14.10
2022-10-23T06:39:15.522Z,14.20
2022-10-23T06:41:45.532Z,14.20
2022-10-23T06:44:13.768Z,14.20
2022-10-23T06:46:42.143Z,14.20
2022-10-23T06:49:10.395Z,14.30
2022-10-23T06:51:38.591Z,14.30
2022-10-23T06:54:06.914Z,14.30
2022-10-23T06:56:35.296Z,14.40
2022-10-23T06:59:07.793Z,14.40
2022-10-23T07:01:36.620Z,14.50
2022-10-23T07:04:04.951Z,14.50
2022-10-23T07:06:33.171Z,14.60
2022-10-23T07:09:01.585Z,14.60
2022-10-23T07:11:29.986Z,14.70
2022-10-23T07:13:58.191Z,14.70
2022-10-23T07:16:28.273Z,14.70
2022-10-23T07:18:59.663Z,14.80
2022-10-23T07:21:28.590Z,14.80
2022-10-23T07:23:56.990Z,14.90
2022-10-23T07:26:25.900Z,14.90
2022-10-23T07:28:55.256Z,15.00
2022-10-23T07:31:27.182Z,15.00
2022-10-23T07:33:58.026Z,15.10
2022-10-23T07:36:26.285Z,15.10
2022-10-23T07:38:54.559Z,15.10
2022-10-23T07:41:23.172Z,15.20
2022-10-23T07:43:51.385Z,15.20
2022-10-23T07:46:19.940Z,15.20
2022-10-23T07:48:48.216Z,15.30
2022-10-23T07:51:18.266Z,15.40
2022-10-23T07:53:46.452Z,15.30
2022-10-23T07:56:17.139Z,15.40
2022-10-23T07:58:45.696Z,15.40
2022-10-23T08:01:19.775Z,15.40
2022-10-23T08:03:48.111Z,15.50
2022-10-23T08:06:17.813Z,15.60
2022-10-23T08:08:46.196Z,15.60
2022-10-23T08:11:16.069Z,15.70
2022-10-23T08:13:44.382Z,15.80
2022-10-23T08:16:12.647Z,15.80
2022-10-23T08:18:42.765Z,15.90
2022-10-23T08:21:12.353Z,16.00
2022-10-23T08:23:42.035Z,16.10
2022-10-23T08:26:11.242Z,16.20
2022-10-23T08:28:39.499Z,16.20
2022-10-23T08:31:10.135Z,16.30
2022-10-23T08:33:39.152Z,16.30
2022-10-23T08:36:16.453Z,16.40
2022-10-23T08:38:46.204Z,16.40
2022-10-23T08:41:25.127Z,16.40
2022-10-23T08:43:58.009Z,16.40
2022-10-23T08:46:31.154Z,16.40
2022-10-23T08:49:10.141Z,16.30
2022-10-23T08:51:43.882Z,16.30
2022-10-23T08:54:19.541Z,16.30
2022-10-23T08:56:52.504Z,16.30
2022-10-23T08:59:28.288Z,16.30
2022-10-23T09:02:01.789Z,16.30
2022-10-23T09:04:30.714Z,16.30
2022-10-23T09:07:10.450Z,16.30
2022-10-23T09:09:59.226Z,16.40
2022-10-23T09:12:30.254Z,16.40
2022-10-23T09:15:23.888Z,16.40
2022-10-23T09:17:58.912Z,16.40
2022-10-23T09:20:30.170Z,16.40
2022-10-23T09:23:01.312Z,16.40
2022-10-23T09:25:35.293Z,16.40
2022-10-23T09:28:05.775Z,16.40
2022-10-23T09:30:36.531Z,16.40
2022-10-23T09:33:16.519Z,16.50
2022-10-23T09:35:56.981Z,16.50
2022-10-23T09:38:30.435Z,16.50
2022-10-23T09:41:03.762Z,16.60
2022-10-23T09:43:32.017Z,16.60
2022-10-23T09:46:02.881Z,16.70
2022-10-23T09:48:31.349Z,16.70
2022-10-23T09:51:01.632Z,16.80
2022-10-23T09:53:38.580Z,16.80
2022-10-23T09:56:25.613Z,16.90
2022-10-23T09:58:57.574Z,16.90
2022-10-23T10:01:27.604Z,17.00
2022-10-23T10:03:57.288Z,17.00
2022-10-23T10:06:28.291Z,17.10
2022-10-23T10:08:59.055Z,17.10
2022-10-23T10:11:36.312Z,17.10
2022-10-23T10:14:29.725Z,17.20
2022-10-23T10:17:01.999Z,17.20
2022-10-23T10:19:46.682Z,17.20
2022-10-23T10:22:27.398Z,17.30
2022-10-23T10:25:02.958Z,17.30
2022-10-23T10:27:46.886Z,17.40
2022-10-23T10:30:19.385Z,17.40
2022-10-23T10:32:53.078Z,17.50
2022-10-23T10:35:27.816Z,17.50
2022-10-23T10:38:32.681Z,17.60
2022-10-23T10:41:26.376Z,17.60
2022-10-23T10:44:08.898Z,17.60
2022-10-23T10:46:45.823Z,17.70
2022-10-23T10:49:21.289Z,17.70
2022-10-23T10:52:00.099Z,17.70
2022-10-23T10:54:41.635Z,17.80
2022-10-23T10:57:18.811Z,17.80
2022-10-23T10:59:54.682Z,17.80
2022-10-23T11:02:28.798Z,17.90
2022-10-23T11:05:04.650Z,18.00
2022-10-23T11:07:42.645Z,18.10
2022-10-23T11:10:18.718Z,18.10
2022-10-23T11:12:49.184Z,18.20
2022-10-23T11:15:23.019Z,18.30
2022-10-23T11:17:54.976Z,18.30
2022-10-23T11:20:41.307Z,18.40
2022-10-23T11:23:26.292Z,18.60
2022-10-23T11:26:22.468Z,18.70
2022-10-23T11:29:04.290Z,18.80
2022-10-23T11:31:40.950Z,19.00
2022-10-23T11:34:41.177Z,19.00
2022-10-23T11:37:09.540Z,19.10
2022-10-23T11:39:40.519Z,19.10
2022-10-23T11:42:30.788Z,19.20
2022-10-23T11:44:59.153Z,19.20
2022-10-23T11:47:38.903Z,19.20
2022-10-23T11:50:27.122Z,19.10
2022-10-23T11:53:13.589Z,19.10
2022-10-23T11:55:59.163Z,19.10
2022-10-23T11:58:32.274Z,19.10
2022-10-23T12:01:05.114Z,19.10
2022-10-23T12:03:52.784Z,19.20
2022-10-23T12:06:26.096Z,19.20
2022-10-23T12:09:00.044Z,19.20
2022-10-23T12:11:41.318Z,19.20
2022-10-23T12:14:28.926Z,19.30
2022-10-23T12:16:57.346Z,19.30
2022-10-23T12:19:29.310Z,19.30
2022-10-23T12:22:01.841Z,19.40
2022-10-23T12:24:44.312Z,19.40
2022-10-23T12:27:22.219Z,19.50
2022-10-23T12:30:01.482Z,19.50
2022-10-23T12:32:42.889Z,19.60
2022-10-23T12:35:43.374Z,19.60
2022-10-23T12:38:16.409Z,19.60
2022-10-23T12:40:46.821Z,19.70
2022-10-23T12:43:26.351Z,19.70
2022-10-23T12:45:57.049Z,19.70
2022-10-23T12:48:26.370Z,19.70
2022-10-23T12:50:57.589Z,19.70
2022-10-23T12:53:25.913Z,19.80
2022-10-23T12:58:32.091Z,19.80
2022-10-23T13:01:02.200Z,19.80
2022-10-23T13:03:32.278Z,19.80
2022-10-23T13:06:03.761Z,19.90
2022-10-23T13:08:38.103Z,19.90
2022-10-23T13:11:07.664Z,20.00
2022-10-23T13:13:36.328Z,20.00
2022-10-23T13:16:15.753Z,20.00
2022-10-23T13:18:44.001Z,20.10
2022-10-23T13:21:21.207Z,20.10
2022-10-23T13:23:50.139Z,20.10
2022-10-23T13:26:27.172Z,20.10
2022-10-23T13:28:55.933Z,20.10
2022-10-23T13:31:30.896Z,20.10
2022-10-23T13:34:18.145Z,20.10
2022-10-23T13:37:03.493Z,20.10
2022-10-23T13:39:33.648Z,20.10
2022-10-23T13:42:12.144Z,20.10
2022-10-23T13:44:40.524Z,20.10
2022-10-23T13:47:13.709Z,20.10
2022-10-23T13:49:41.976Z,20.20
2022-10-23T13:52:14.806Z,20.20
2022-10-23T13:54:43.706Z,20.30
2022-10-23T13:57:14.057Z,20.30
2022-10-23T13:59:42.558Z,20.30
2022-10-23T14:02:19.918Z,20.20
2022-10-23T14:04:48.433Z,20.10
2022-10-23T14:07:18.293Z,20.10
2022-10-23T14:09:46.747Z,20.00
2022-10-23T14:12:14.987Z,19.90
2022-10-23T14:14:43.233Z,19.90
2022-10-23T14:17:11.449Z,19.80
2022-10-23T14:19:40.070Z,19.80
2022-10-23T14:22:08.422Z,19.80
2022-10-23T14:24:38.451Z,19.80
2022-10-23T14:27:06.731Z,19.70
2022-10-23T14:29:35.178Z,19.70
2022-10-23T14:32:03.590Z,19.60
2022-10-23T14:34:31.819Z,19.60
2022-10-23T14:37:15.196Z,19.60
2022-10-23T14:39:49.597Z,19.50
2022-10-23T14:42:18.626Z,19.50
2022-10-23T14:44:46.880Z,19.50
2022-10-23T14:47:15.135Z,19.40
2022-10-23T14:49:43.794Z,19.40
2022-10-23T14:52:12.043Z,19.40
2022-10-23T14:54:40.654Z,19.30
2022-10-23T14:57:10.707Z,19.30
2022-10-23T14:59:39.194Z,19.30
2022-10-23T15:02:07.554Z,19.30
2022-10-23T15:04:35.837Z,19.30
2022-10-23T15:07:04.316Z,19.20
2022-10-23T15:09:35.253Z,19.20
2022-10-23T15:12:04.255Z,19.10
2022-10-23T15:14:34.026Z,19.10
2022-10-23T15:17:02.963Z,19.10
2022-10-23T15:19:31.433Z,19.00
2022-10-23T15:21:59.643Z,19.00
2022-10-23T15:24:27.949Z,19.00
2022-10-23T15:26:57.154Z,18.90
2022-10-23T15:29:25.490Z,18.90
2022-10-23T15:31:58.295Z,18.80
2022-10-23T15:34:27.993Z,18.80
2022-10-23T15:36:57.997Z,18.70
2022-10-23T15:39:28.418Z,18.70
2022-10-23T15:41:57.941Z,18.60
2022-10-23T15:44:28.985Z,18.60
2022-10-23T15:46:59.345Z,18.50
2022-10-23T15:49:29.442Z,18.40
2022-10-23T15:51:58.147Z,18.30
2022-10-23T15:54:29.270Z,18.30
2022-10-23T15:57:00.619Z,18.20
2022-10-23T15:59:29.868Z,18.20
2022-10-23T16:02:00.091Z,18.10
2022-10-23T16:04:29.693Z,18.00
2022-10-23T16:06:58.047Z,18.00
2022-10-23T16:09:26.410Z,18.00
2022-10-23T16:11:54.722Z,17.90
2022-10-23T16:14:22.976Z,17.90
2022-10-23T16:16:51.253Z,17.90
2022-10-23T16:19:20.919Z,17.90
2022-10-23T16:21:49.369Z,17.90
2022-10-23T16:24:17.582Z,17.80
2022-10-23T16:26:50.439Z,17.80
2022-10-23T16:29:18.654Z,17.90
2022-10-23T16:31:46.959Z,17.90
2022-10-23T16:34:15.320Z,17.90
2022-10-23T16:36:45.191Z,17.90
2022-10-23T16:39:15.290Z,17.90
2022-10-23T16:41:43.729Z,17.90
2022-10-23T16:44:12.016Z,17.90
2022-10-23T16:46:40.749Z,17.90
2022-10-23T16:49:09.624Z,17.80
2022-10-23T16:51:37.929Z,17.80
2022-10-23T16:54:07.704Z,17.80
2022-10-23T16:56:35.970Z,17.70
2022-10-23T16:59:04.332Z,17.70
2022-10-23T17:01:33.782Z,17.70
2022-10-23T17:04:02.356Z,17.70
2022-10-23T17:06:32.556Z,17.70
2022-10-23T17:09:02.297Z,17.60
2022-10-23T17:11:34.310Z,17.60
2022-10-23T17:14:04.543Z,17.60
2022-10-23T17:16:35.660Z,17.60
2022-10-23T17:19:15.829Z,17.60
2022-10-23T17:21:54.220Z,17.60
2022-10-23T17:24:22.981Z,17.60
2022-10-23T17:26:52.702Z,17.50
2022-10-23T17:29:21.649Z,17.50
2022-10-23T17:31:51.635Z,17.60
2022-10-23T17:34:22.454Z,17.60
2022-10-23T17:36:57.375Z,17.50
2022-10-23T17:39:27.429Z,17.50
2022-10-23T17:41:58.246Z,17.50
2022-10-23T17:44:26.834Z,17.50
2022-10-23T17:46:56.270Z,17.50
2022-10-23T17:49:24.700Z,17.50
2022-10-23T17:51:54.395Z,17.50
2022-10-23T17:54:23.388Z,17.50
2022-10-23T17:56:51.733Z,17.50
2022-10-23T17:59:21.884Z,17.50
2022-10-23T18:01:51.156Z,17.50
2022-10-23T18:04:21.213Z,17.50
2022-10-23T18:06:52.683Z,17.50
2022-10-23T18:09:22.797Z,17.50
2022-10-23T18:11:51.933Z,17.50
2022-10-23T18:14:24.343Z,17.40
2022-10-23T18:16:55.010Z,17.50
2022-10-23T18:19:23.362Z,17.50
2022-10-23T18:21:51.580Z,17.40
2022-10-23T18:24:20.482Z,17.40
2022-10-23T18:26:49.342Z,17.40
2022-10-23T18:29:18.927Z,17.40
2022-10-23T18:31:49.369Z,17.40
2022-10-23T18:34:19.287Z,17.40
2022-10-23T18:36:48.370Z,17.30
2022-10-23T18:39:22.449Z,17.30
2022-10-23T18:41:53.438Z,17.30
2022-10-23T18:44:22.969Z,17.20
2022-10-23T18:46:53.524Z,17.20
2022-10-23T18:49:21.766Z,17.20
2022-10-23T18:51:51.067Z,17.20
2022-10-23T18:54:21.174Z,17.10
2022-10-23T18:56:49.877Z,17.10
2022-10-23T18:59:20.378Z,17.10
2022-10-23T19:01:49.316Z,17.00
2022-10-23T19:04:19.467Z,17.00
2022-10-23T19:06:51.840Z,17.00
2022-10-23T19:09:20.574Z,17.00
2022-10-23T19:11:48.781Z,17.00
2022-10-23T19:14:17.031Z,17.00
2022-10-23T19:16:53.521Z,16.90
2022-10-23T19:19:26.841Z,16.90
2022-10-23T19:21:55.663Z,16.90
2022-10-23T19:24:27.178Z,16.90
2022-10-23T19:26:56.355Z,16.90
2022-10-23T19:29:26.766Z,16.90
2022-10-23T19:31:55.416Z,16.90
2022-10-23T19:34:25.454Z,16.90
2022-10-23T19:36:54.736Z,16.80
2022-10-23T19:39:23.482Z,16.80
2022-10-23T19:41:52.066Z,16.80
2022-10-23T19:44:21.050Z,16.80
2022-10-23T19:46:49.716Z,16.80
2022-10-23T19:49:18.361Z,16.80
2022-10-23T19:51:51.211Z,16.80
2022-10-23T19:54:20.269Z,16.80
2022-10-23T19:56:48.533Z,16.80
2022-10-23T19:59:17.195Z,16.80
2022-10-23T20:01:47.898Z,16.80
2022-10-23T20:04:17.838Z,16.80
2022-10-23T20:06:47.490Z,16.80
2022-10-23T20:09:15.745Z,16.80
2022-10-23T20:11:45.501Z,16.80
2022-10-23T20:14:14.354Z,16.70
2022-10-23T20:16:46.038Z,16.70
2022-10-23T20:21:50.938Z,16.70
2022-10-23T20:24:20.807Z,16.70
2022-10-23T20:26:51.138Z,16.70
2022-10-23T20:29:19.745Z,16.70
2022-10-23T20:31:48.203Z,16.70
2022-10-23T20:34:16.408Z,16.70
2022-10-23T20:36:47.318Z,16.60
2022-10-23T20:39:19.356Z,16.60
2022-10-23T20:41:48.472Z,16.60
2022-10-23T20:44:18.878Z,16.60
2022-10-23T20:46:47.435Z,16.60
2022-10-23T20:49:16.591Z,16.60
2022-10-23T20:51:45.652Z,16.60
2022-10-23T20:54:14.231Z,16.50
2022-10-23T20:56:44.078Z,16.50
2022-10-23T20:59:14.409Z,16.50
2022-10-23T21:01:44.397Z,16.50
2022-10-23T21:04:14.375Z,16.40
2022-10-23T21:06:57.785Z,16.40
2022-10-23T21:09:31.991Z,16.40
2022-10-23T21:12:01.853Z,16.30
2022-10-23T21:14:30.915Z,16.30
2022-10-23T21:16:59.140Z,16.20
2022-10-23T21:19:27.469Z,16.20
2022-10-23T21:21:55.734Z,16.20
2022-10-23T21:24:24.720Z,16.20
2022-10-23T21:26:53.244Z,16.10
2022-10-23T21:29:22.878Z,16.10
2022-10-23T21:31:55.939Z,16.10
2022-10-23T21:34:25.135Z,16.00
2022-10-23T21:37:12.399Z,16.00
2022-10-23T21:39:42.483Z,16.00
2022-10-23T21:42:10.745Z,16.00
2022-10-23T21:44:40.434Z,15.90
2022-10-23T21:47:08.722Z,15.90
2022-10-23T21:49:37.110Z,15.90
2022-10-23T21:52:05.462Z,15.90
2022-10-23T21:54:33.910Z,16.00
2022-10-23T21:57:03.365Z,16.00
2022-10-23T21:59:35.585Z,16.00
2022-10-23T22:02:06.132Z,16.10
2022-10-23T22:04:35.197Z,16.10
2022-10-23T22:07:03.951Z,16.10
2022-10-23T22:09:33.050Z,16.10
2022-10-23T22:12:02.336Z,16.20
2022-10-23T22:14:30.565Z,16.20
2022-10-23T22:16:59.162Z,16.20
2022-10-23T22:19:29.154Z,16.20
2022-10-23T22:21:57.490Z,16.20
2022-10-23T22:24:26.073Z,16.30
2022-10-23T22:26:56.668Z,16.30
2022-10-23T22:29:27.038Z,16.30
2022-10-23T22:31:55.601Z,16.40
2022-10-23T22:34:47.979Z,16.40
2022-10-23T22:37:15.646Z,16.40
2022-10-23T22:39:44.014Z,16.40
2022-10-23T22:42:12.291Z,16.30
2022-10-23T22:44:40.568Z,16.30
2022-10-23T22:47:08.790Z,16.30
2022-10-23T22:49:37.764Z,16.30
2022-10-23T22:52:06.189Z,16.30
2022-10-23T22:54:36.029Z,16.30
2022-10-23T22:57:04.397Z,16.30
2022-10-23T22:59:32.749Z,16.40
2022-10-23T23:02:00.993Z,16.40
2022-10-23T23:04:38.314Z,16.40
2022-10-23T23:07:08.370Z,16.30
2022-10-23T23:09:39.573Z,16.40
2022-10-23T23:12:08.760Z,16.30
2022-10-23T23:14:37.323Z,16.30
2022-10-23T23:17:06.023Z,16.30
2022-10-23T23:19:34.576Z,16.30
2022-10-23T23:22:04.309Z,16.30
2022-10-23T23:24:32.746Z,16.30
2022-10-23T23:27:02.397Z,16.30
2022-10-23T23:29:30.795Z,16.30
2022-10-23T23:31:59.511Z,16.30
2022-10-23T23:34:27.825Z,16.30
2022-10-23T23:36:56.094Z,16.30
2022-10-23T23:39:26.157Z,16.30
2022-10-23T23:41:54.797Z,16.30
2022-10-23T23:44:24.608Z,16.30
2022-10-23T23:46:52.824Z,16.30
2022-10-23T23:49:21.121Z,16.30
2022-10-23T23:51:49.814Z,16.30
2022-10-23T23:54:18.254Z,16.30
2022-10-23T23:56:46.598Z,16.30
2022-10-23T23:59:14.778Z,16.30
